createdAt,value
2023-03-07T00:30:32.160Z,990.57
2023-03-07T00:31:17.228Z,990.57
2023-03-07T00:31:57.959Z,990.59
2023-03-07T00:32:38.566Z,990.64
2023-03-07T00:33:19.053Z,990.54
2023-03-07T00:33:59.528Z,990.39
2023-03-07T00:34:40.180Z,990.6
2023-03-07T00:35:20.744Z,990.46
2023-03-07T00:36:01.325Z,990.35
2023-03-07T00:37:22.645Z,990.49
2023-03-07T00:38:03.583Z,990.58
2023-03-07T00:38:44.122Z,990.62
2023-03-07T00:39:24.738Z,990.56
2023-03-07T00:42:25.601Z,990.59
2023-03-07T00:43:08.424Z,990.54
2023-03-07T00:43:50.392Z,990.58
2023-03-07T00:46:28.160Z,990.41
2023-03-07T00:47:08.012Z,990.53
2023-03-07T00:47:48.655Z,990.55
2023-03-07T00:48:29.159Z,990.41
2023-03-07T00:49:50.186Z,990.52
2023-03-07T00:50:30.756Z,990.47
2023-03-07T00:51:12.113Z,990.49
2023-03-07T00:51:52.585Z,990.52
2023-03-07T00:52:33.104Z,990.56
2023-03-07T00:53:14.065Z,990.58
2023-03-07T00:53:55.027Z,990.51
2023-03-07T00:54:36.373Z,990.5
2023-03-07T00:55:16.786Z,990.5
2023-03-07T00:55:57.578Z,990.51
2023-03-07T00:57:18.580Z,990.51
2023-03-07T00:57:59.097Z,990.3
2023-03-07T00:58:39.694Z,990.49
2023-03-07T00:59:20.262Z,990.44
2023-03-07T01:00:00.817Z,990.51
2023-03-07T01:00:41.379Z,990.16
2023-03-07T01:01:21.966Z,990.44
2023-03-07T01:02:02.479Z,990.48
2023-03-07T01:02:43.070Z,990.43
2023-03-07T01:03:23.547Z,990.49
2023-03-07T01:04:04.046Z,990.48
2023-03-07T01:04:44.492Z,990.36
2023-03-07T01:05:25.196Z,990.62
2023-03-07T01:06:05.743Z,990.33
2023-03-07T01:06:46.242Z,990.46
2023-03-07T01:07:26.731Z,990.28
2023-03-07T01:08:07.284Z,990.32
2023-03-07T01:08:48.700Z,990.34
2023-03-07T01:09:29.172Z,990.28
2023-03-07T01:10:09.675Z,990.33
2023-03-07T01:10:50.456Z,990.23
2023-03-07T01:11:30.949Z,990.3
2023-03-07T01:12:11.453Z,990.35
2023-03-07T01:12:51.966Z,990.39
2023-03-07T01:13:32.530Z,990.36
2023-03-07T01:14:53.507Z,990.34
2023-03-07T01:15:34.079Z,990.3
2023-03-07T01:16:15.277Z,990.32
2023-03-07T01:16:56.266Z,990.33
2023-03-07T01:17:36.748Z,990.23
2023-03-07T01:18:18.200Z,990.35
2023-03-07T01:18:59.607Z,990.34
2023-03-07T01:19:40.156Z,990.32
2023-03-07T01:20:21.803Z,990.22
2023-03-07T01:21:02.517Z,990.2
2023-03-07T01:21:43.736Z,990.35
2023-03-07T01:22:24.229Z,990.23
2023-03-07T01:23:04.816Z,990.27
2023-03-07T01:23:46.118Z,990.27
2023-03-07T01:24:26.677Z,990.26
2023-03-07T01:25:07.140Z,990.26
2023-03-07T01:25:47.750Z,990.27
2023-03-07T01:26:28.225Z,990.21
2023-03-07T01:27:08.676Z,990.15
2023-03-07T01:27:49.348Z,990.25
2023-03-07T01:28:29.849Z,990.21
2023-03-07T01:29:10.395Z,990.23
2023-03-07T01:29:50.941Z,990.28
2023-03-07T01:30:33.072Z,990.11
2023-03-07T01:31:13.686Z,990.07
2023-03-07T01:32:34.702Z,990.25
2023-03-07T01:33:16.214Z,990.19
2023-03-07T01:33:57.567Z,990.05
2023-03-07T01:34:38.109Z,990.2
2023-03-07T01:35:19.221Z,990.23
2023-03-07T01:35:59.879Z,990.2
2023-03-07T01:36:40.316Z,990.24
2023-03-07T01:37:20.754Z,990.23
2023-03-07T01:38:01.262Z,990.14
2023-03-07T01:38:41.832Z,990.22
2023-03-07T01:39:22.484Z,990.1
2023-03-07T01:40:02.930Z,990.19
2023-03-07T01:40:43.485Z,990.06
2023-03-07T01:41:24.025Z,990.21
2023-03-07T01:42:04.476Z,990.16
2023-03-07T01:42:45.000Z,990.2
2023-03-07T01:43:25.660Z,990.14
2023-03-07T01:44:06.137Z,990.25
2023-03-07T01:44:46.703Z,990.2
2023-03-07T01:45:27.166Z,990.2
2023-03-07T01:46:07.794Z,990.21
2023-03-07T01:46:48.281Z,990.05
2023-03-07T01:47:28.840Z,990.16
2023-03-07T01:48:09.215Z,990.2
2023-03-07T01:48:49.748Z,990.15
2023-03-07T01:49:30.401Z,990.21
2023-03-07T01:50:10.754Z,990.2
2023-03-07T01:50:51.163Z,990.15
2023-03-07T01:51:31.692Z,990.12
2023-03-07T01:52:12.352Z,990.28
2023-03-07T01:52:52.810Z,990.1
2023-03-07T01:53:33.633Z,990.11
2023-03-07T01:54:14.196Z,990.17
2023-03-07T01:54:54.669Z,990.19
2023-03-07T01:55:35.180Z,990.08
2023-03-07T01:56:15.746Z,990.08
2023-03-07T01:56:56.225Z,990.1
2023-03-07T01:57:36.878Z,990.09
2023-03-07T01:58:17.926Z,990.02
2023-03-07T01:58:58.431Z,990.06
2023-03-07T02:00:19.465Z,990.01
2023-03-07T02:00:59.965Z,990.03
2023-03-07T02:01:40.687Z,989.94
2023-03-07T02:02:21.788Z,989.91
2023-03-07T02:03:02.310Z,989.98
2023-03-07T02:03:42.819Z,989.95
2023-03-07T02:04:23.431Z,989.97
2023-03-07T02:05:03.808Z,989.98
2023-03-07T02:05:44.306Z,989.89
2023-03-07T02:06:24.869Z,989.93
2023-03-07T02:07:05.391Z,989.89
2023-03-07T02:07:45.923Z,989.86
2023-03-07T02:08:26.375Z,989.87
2023-03-07T02:09:06.900Z,989.84
2023-03-07T02:09:47.372Z,989.86
2023-03-07T02:10:27.919Z,989.79
2023-03-07T02:11:08.407Z,989.85
2023-03-07T02:11:48.952Z,989.77
2023-03-07T02:12:29.453Z,989.64
2023-03-07T02:13:10.176Z,989.8
2023-03-07T02:13:50.658Z,989.89
2023-03-07T02:14:31.234Z,989.68
2023-03-07T02:15:11.775Z,989.77
2023-03-07T02:15:52.388Z,989.78
2023-03-07T02:16:32.799Z,989.78
2023-03-07T02:17:13.280Z,989.7
2023-03-07T02:17:53.762Z,989.81
2023-03-07T02:18:34.316Z,989.86
2023-03-07T02:19:14.987Z,989.69
2023-03-07T02:20:35.976Z,989.73
2023-03-07T02:21:16.436Z,989.74
2023-03-07T02:21:57.013Z,989.73
2023-03-07T02:22:37.537Z,989.74
2023-03-07T02:23:18.286Z,989.68
2023-03-07T02:23:59.138Z,989.66
2023-03-07T02:24:40.742Z,989.3
2023-03-07T02:25:21.272Z,989.64
2023-03-07T02:26:01.900Z,989.65
2023-03-07T02:26:43.278Z,989.68
2023-03-07T02:27:23.761Z,989.66
2023-03-07T02:28:04.276Z,989.67
2023-03-07T02:28:44.776Z,989.64
2023-03-07T02:29:25.318Z,989.61
2023-03-07T02:30:05.823Z,989.66
2023-03-07T02:30:46.327Z,989.67
2023-03-07T02:31:26.877Z,989.59
2023-03-07T02:32:07.428Z,989.54
2023-03-07T02:32:47.898Z,989.57
2023-03-07T02:33:28.499Z,989.63
2023-03-07T02:34:08.955Z,989.63
2023-03-07T02:34:49.512Z,989.56
2023-03-07T02:35:30.124Z,989.57
2023-03-07T02:36:10.494Z,989.66
2023-03-07T02:36:51.654Z,989.47
2023-03-07T02:37:32.138Z,989.5
2023-03-07T02:38:12.624Z,989.46
2023-03-07T02:38:53.538Z,989.5
2023-03-07T02:39:34.066Z,989.6
2023-03-07T02:40:15.744Z,989.52
2023-03-07T02:40:56.195Z,989.5
2023-03-07T02:41:36.727Z,989.59
2023-03-07T02:42:17.312Z,989.59
2023-03-07T02:42:58.550Z,989.55
2023-03-07T02:43:39.031Z,989.59
2023-03-07T02:44:19.548Z,989.61
2023-03-07T02:45:00.860Z,989.59
2023-03-07T02:45:41.378Z,989.58
2023-03-07T02:46:21.989Z,989.6
2023-03-07T02:47:02.504Z,989.62
2023-03-07T02:47:42.934Z,989.6
2023-03-07T02:48:23.457Z,989.56
2023-03-07T02:49:04.636Z,989.56
2023-03-07T02:49:45.169Z,989.53
2023-03-07T02:50:25.656Z,989.58
2023-03-07T02:51:06.641Z,989.51
2023-03-07T02:51:46.777Z,989.5
2023-03-07T02:52:27.458Z,989.43
2023-03-07T02:53:08.110Z,989.52
2023-03-07T02:53:48.607Z,989.52
2023-03-07T02:54:29.137Z,989.41
2023-03-07T02:55:09.793Z,989.45
2023-03-07T02:55:52.249Z,989.27
2023-03-07T02:56:32.816Z,989.45
2023-03-07T02:57:13.374Z,989.43
2023-03-07T02:57:53.839Z,989.48
2023-03-07T02:58:34.405Z,989.45
2023-03-07T02:59:15.659Z,989.34
2023-03-07T02:59:56.231Z,989.37
2023-03-07T03:00:36.759Z,989.44
2023-03-07T03:01:17.942Z,989.42
2023-03-07T03:01:58.470Z,989.44
2023-03-07T03:02:38.829Z,989.4
2023-03-07T03:03:19.364Z,989.34
2023-03-07T03:03:59.948Z,989.43
2023-03-07T03:04:40.440Z,989.36
2023-03-07T03:06:02.890Z,989.44
2023-03-07T03:06:43.492Z,989.39
2023-03-07T03:07:25.048Z,989.48
2023-03-07T03:09:53.038Z,989.32
2023-03-07T03:10:33.508Z,989.35
2023-03-07T03:11:13.949Z,989.41
2023-03-07T03:11:54.478Z,989.38
2023-03-07T03:12:34.918Z,989.37
2023-03-07T03:13:15.422Z,989.36
2023-03-07T03:13:55.933Z,989.34
2023-03-07T03:14:36.422Z,989.3
2023-03-07T03:15:17.006Z,989.37
2023-03-07T03:15:57.617Z,989.24
2023-03-07T03:16:38.026Z,989.35
2023-03-07T03:17:18.527Z,989.31
2023-03-07T03:17:59.030Z,989.25
2023-03-07T03:18:39.527Z,989.25
2023-03-07T03:19:20.092Z,989.35
2023-03-07T03:20:00.557Z,989.38
2023-03-07T03:20:41.038Z,989.36
2023-03-07T03:21:21.593Z,989.33
2023-03-07T03:22:02.112Z,989.32
2023-03-07T03:22:42.578Z,989.23
2023-03-07T03:23:23.080Z,989.27
2023-03-07T03:24:03.569Z,989.25
2023-03-07T03:24:44.088Z,989.27
2023-03-07T03:25:24.519Z,989.33
2023-03-07T03:26:05.036Z,989.12
2023-03-07T03:26:45.483Z,989.3
2023-03-07T03:27:26.030Z,989.14
2023-03-07T03:28:06.551Z,989.16
2023-03-07T03:28:46.977Z,989.13
2023-03-07T03:29:27.489Z,989.02
2023-03-07T03:30:08.045Z,989.26
2023-03-07T03:30:48.492Z,989.25
2023-03-07T03:31:29.054Z,989.21
2023-03-07T03:32:09.513Z,989.23
2023-03-07T03:32:49.986Z,989.2
2023-03-07T03:33:30.482Z,989.16
2023-03-07T03:34:10.987Z,989.21
2023-03-07T03:34:51.483Z,989.22
2023-03-07T03:35:32.024Z,989.18
2023-03-07T03:36:12.520Z,989.1
2023-03-07T03:36:52.997Z,989.17
2023-03-07T03:37:33.613Z,989.16
2023-03-07T03:38:13.955Z,989.18
2023-03-07T03:38:54.456Z,989.07
2023-03-07T03:39:34.931Z,989.25
2023-03-07T03:40:15.425Z,988.96
2023-03-07T03:40:55.934Z,989.18
2023-03-07T03:41:36.408Z,989.02
2023-03-07T03:42:16.898Z,989.12
2023-03-07T03:43:37.889Z,989.07
2023-03-07T03:44:18.365Z,989.13
2023-03-07T03:44:58.901Z,989.13
2023-03-07T03:45:39.359Z,989.14
2023-03-07T03:46:19.924Z,989.05
2023-03-07T03:47:00.405Z,989.13
2023-03-07T03:47:40.850Z,989.15
2023-03-07T03:48:21.331Z,989.09
2023-03-07T03:49:01.809Z,989.07
2023-03-07T03:49:42.317Z,989.04
2023-03-07T03:50:22.789Z,989.09
2023-03-07T03:51:03.267Z,989.11
2023-03-07T03:51:43.745Z,989.09
2023-03-07T03:52:24.254Z,989.02
2023-03-07T03:53:45.267Z,989.05
2023-03-07T03:54:25.700Z,989.12
2023-03-07T03:55:06.225Z,989.06
2023-03-07T03:55:46.676Z,989.09
2023-03-07T03:56:27.178Z,989.01
2023-03-07T03:57:07.737Z,989.04
2023-03-07T03:57:48.208Z,988.88
2023-03-07T03:58:28.726Z,989.01
2023-03-07T03:59:09.218Z,989.1
2023-03-07T03:59:50.466Z,989.03
2023-03-07T04:01:11.473Z,989.04
2023-03-07T04:01:52.082Z,988.98
2023-03-07T04:02:32.529Z,989.04
2023-03-07T04:03:13.004Z,988.9
2023-03-07T04:03:53.543Z,989.03
2023-03-07T04:04:33.993Z,988.98
2023-03-07T04:05:14.483Z,989
2023-03-07T04:05:54.937Z,989.06
2023-03-07T04:06:35.439Z,989.02
2023-03-07T04:07:15.919Z,989.02
2023-03-07T04:07:56.463Z,988.97
2023-03-07T04:08:36.914Z,988.87
2023-03-07T04:09:17.346Z,989.02
2023-03-07T04:09:57.830Z,989.04
2023-03-07T04:10:38.304Z,988.98
2023-03-07T04:11:18.857Z,988.98
2023-03-07T04:11:59.336Z,989
2023-03-07T04:12:39.827Z,989
2023-03-07T04:13:20.327Z,988.93
2023-03-07T04:14:00.840Z,988.93
2023-03-07T04:14:41.302Z,988.97
2023-03-07T04:15:21.814Z,988.89
2023-03-07T04:16:02.327Z,988.91
2023-03-07T04:16:42.829Z,988.85
2023-03-07T04:17:23.293Z,988.92
2023-03-07T04:18:44.322Z,988.9
2023-03-07T04:19:24.825Z,988.85
2023-03-07T04:20:05.330Z,988.79
2023-03-07T04:20:45.803Z,988.77
2023-03-07T04:21:26.338Z,988.76
2023-03-07T04:22:06.838Z,988.79
2023-03-07T04:22:47.303Z,988.77
2023-03-07T04:23:27.766Z,988.77
2023-03-07T04:24:08.268Z,988.56
2023-03-07T04:24:48.749Z,988.68
2023-03-07T04:26:09.902Z,988.76
2023-03-07T04:26:50.235Z,988.76
2023-03-07T04:27:30.735Z,988.7
2023-03-07T04:28:11.214Z,988.66
2023-03-07T04:28:51.698Z,988.69
2023-03-07T04:29:32.189Z,988.76
2023-03-07T04:30:12.678Z,988.71
2023-03-07T04:30:53.203Z,988.68
2023-03-07T04:31:33.670Z,988.64
2023-03-07T04:32:14.180Z,988.62
2023-03-07T04:32:54.677Z,988.6
2023-03-07T04:33:35.128Z,988.54
2023-03-07T04:34:16.556Z,988.62
2023-03-07T04:34:56.112Z,988.67
2023-03-07T04:36:18.084Z,988.58
2023-03-07T04:36:57.592Z,988.53
2023-03-07T04:37:38.124Z,988.54
2023-03-07T04:38:18.621Z,988.52
2023-03-07T04:38:59.109Z,988.52
2023-03-07T04:39:39.619Z,988.6
2023-03-07T04:40:20.115Z,988.58
2023-03-07T04:41:00.619Z,988.61
2023-03-07T04:41:41.137Z,988.57
2023-03-07T04:42:21.610Z,988.55
2023-03-07T04:43:42.592Z,988.56
2023-03-07T04:44:23.080Z,988.41
2023-03-07T04:45:04.842Z,988.56
2023-03-07T04:45:44.036Z,988.52
2023-03-07T04:46:25.393Z,988.53
2023-03-07T04:47:05.853Z,988.52
2023-03-07T04:47:46.320Z,988.48
2023-03-07T04:48:26.785Z,988.4
2023-03-07T04:49:07.293Z,988.43
2023-03-07T04:49:47.751Z,988.49
2023-03-07T04:50:28.238Z,988.44
2023-03-07T04:51:08.723Z,988.48
2023-03-07T04:51:49.265Z,988.48
2023-03-07T04:52:29.741Z,988.45
2023-03-07T04:53:10.270Z,988.47
2023-03-07T04:53:50.755Z,988.44
2023-03-07T04:54:31.185Z,988.47
2023-03-07T04:55:11.684Z,988.46
2023-03-07T04:55:52.143Z,988.49
2023-03-07T04:56:32.620Z,988.42
2023-03-07T04:57:13.182Z,988.48
2023-03-07T04:57:53.703Z,988.37
2023-03-07T04:58:34.168Z,988.38
2023-03-07T04:59:14.708Z,988.4
2023-03-07T04:59:55.176Z,988.37
2023-03-07T05:01:16.204Z,988.36
2023-03-07T05:01:56.734Z,988.36
2023-03-07T05:02:37.194Z,988.3
2023-03-07T05:03:17.796Z,988.34
2023-03-07T05:03:58.305Z,988.38
2023-03-07T05:04:38.817Z,988.35
2023-03-07T05:05:19.262Z,988.34
2023-03-07T05:05:59.772Z,988.27
2023-03-07T05:06:41.085Z,988.27
2023-03-07T05:07:21.589Z,988.4
2023-03-07T05:08:02.090Z,988.29
2023-03-07T05:08:42.630Z,988.34
2023-03-07T05:09:23.081Z,988.32
2023-03-07T05:10:03.599Z,988.33
2023-03-07T05:11:24.625Z,988.35
2023-03-07T05:12:05.085Z,988.32
2023-03-07T05:12:45.577Z,988.36
2023-03-07T05:13:26.391Z,988.32
2023-03-07T05:14:07.913Z,988.19
2023-03-07T05:14:48.430Z,988.3
2023-03-07T05:15:29.200Z,988.3
2023-03-07T05:16:10.145Z,988.27
2023-03-07T05:16:50.522Z,988.23
2023-03-07T05:17:31.003Z,988.17
2023-03-07T05:18:11.474Z,988.24
2023-03-07T05:18:51.956Z,988.3
2023-03-07T05:19:32.434Z,988.3
2023-03-07T05:20:12.951Z,988.32
2023-03-07T05:20:53.412Z,988.3
2023-03-07T05:21:33.948Z,988.36
2023-03-07T05:22:14.436Z,988.41
2023-03-07T05:22:54.904Z,988.27
2023-03-07T05:23:35.399Z,988.25
2023-03-07T05:24:15.926Z,988.21
2023-03-07T05:24:56.441Z,988.33
2023-03-07T05:26:17.533Z,988.18
2023-03-07T05:26:57.991Z,988.23
2023-03-07T05:27:38.457Z,988.2
2023-03-07T05:28:19.012Z,988.17
2023-03-07T05:28:59.506Z,988.25
2023-03-07T05:29:39.968Z,988.22
2023-03-07T05:30:20.500Z,988.27
2023-03-07T05:31:01.156Z,988.21
2023-03-07T05:31:41.560Z,988.18
2023-03-07T05:32:22.078Z,988.18
2023-03-07T05:33:02.544Z,988.15
2023-03-07T05:33:43.048Z,988.18
2023-03-07T05:34:23.541Z,988.27
2023-03-07T05:35:04.078Z,988.22
2023-03-07T05:35:44.638Z,988.17
2023-03-07T05:36:25.276Z,988.24
2023-03-07T05:37:05.733Z,988.21
2023-03-07T05:37:46.228Z,988.22
2023-03-07T05:38:26.750Z,988.08
2023-03-07T05:39:07.253Z,988.19
2023-03-07T05:39:47.748Z,988.23
2023-03-07T05:40:28.312Z,988.26
2023-03-07T05:41:08.798Z,988.2
2023-03-07T05:41:49.321Z,988.18
2023-03-07T05:42:29.860Z,988.19
2023-03-07T05:43:10.338Z,988.15
2023-03-07T05:43:50.838Z,988.19
2023-03-07T05:44:33.752Z,988.15
2023-03-07T05:45:12.654Z,988.12
2023-03-07T05:45:53.247Z,988.2
2023-03-07T05:46:33.720Z,988.23
2023-03-07T05:47:14.229Z,988.23
2023-03-07T05:47:54.698Z,988.29
2023-03-07T05:48:35.207Z,988.27
2023-03-07T05:49:15.686Z,988.29
2023-03-07T05:49:56.152Z,988.2
2023-03-07T05:50:36.704Z,988.21
2023-03-07T05:51:17.197Z,988.26
2023-03-07T05:51:57.720Z,988.26
2023-03-07T06:32:01.021Z,987.92
2023-03-07T06:32:41.668Z,988.05
2023-03-07T06:33:22.228Z,988.06
2023-03-07T06:34:04.034Z,988.07
2023-03-07T06:34:44.704Z,988.1
2023-03-07T06:35:25.296Z,988.06
2023-03-07T06:36:05.879Z,987.99
2023-03-07T06:36:46.343Z,988.05
2023-03-07T06:37:26.837Z,987.93
2023-03-07T06:38:07.354Z,988.04
2023-03-07T06:38:47.894Z,988.06
2023-03-07T06:39:30.956Z,988.13
2023-03-07T06:40:08.886Z,987.99
2023-03-07T06:40:49.434Z,988.1
2023-03-07T06:41:30.003Z,988
2023-03-07T06:42:10.436Z,988.08
2023-03-07T06:42:50.902Z,988.04
2023-03-07T06:43:31.579Z,987.97
2023-03-07T06:44:12.080Z,987.98
2023-03-07T06:44:52.555Z,988.04
2023-03-07T06:45:33.172Z,988.04
2023-03-07T06:46:13.573Z,988.01
2023-03-07T06:46:54.120Z,987.93
2023-03-07T06:47:34.685Z,987.92
2023-03-07T06:48:15.446Z,987.98
2023-03-07T06:48:56.611Z,987.9
2023-03-07T06:49:37.169Z,987.94
2023-03-07T06:50:23.712Z,988.02
2023-03-07T06:50:58.269Z,987.94
2023-03-07T06:51:38.777Z,987.9
2023-03-07T06:52:19.332Z,987.86
2023-03-07T06:52:59.871Z,987.89
2023-03-07T06:53:40.451Z,987.97
2023-03-07T06:54:20.982Z,987.83
2023-03-07T06:55:01.588Z,987.89
2023-03-07T06:55:42.181Z,987.95
2023-03-07T06:56:22.676Z,987.8
2023-03-07T06:57:03.264Z,987.88
2023-03-07T06:57:43.767Z,987.93
2023-03-07T06:59:04.782Z,987.91
2023-03-07T06:59:45.421Z,987.93
2023-03-07T07:00:26.036Z,987.99
2023-03-07T07:01:06.641Z,987.99
2023-03-07T07:01:47.405Z,987.98
2023-03-07T07:02:27.940Z,988.05
2023-03-07T07:03:08.600Z,987.98
2023-03-07T07:03:49.095Z,987.93
2023-03-07T07:04:29.855Z,987.94
2023-03-07T07:05:10.457Z,987.96
2023-03-07T07:05:51.012Z,987.99
2023-03-07T07:06:32.434Z,987.96
2023-03-07T07:07:13.107Z,987.96
2023-03-07T07:07:53.734Z,988.03
2023-03-07T07:08:35.136Z,987.95
2023-03-07T07:09:15.879Z,987.95
2023-03-07T07:09:56.303Z,987.85
2023-03-07T07:10:37.009Z,988.01
2023-03-07T07:11:17.701Z,988.01
2023-03-07T07:11:58.191Z,987.93
2023-03-07T07:12:38.741Z,988.05
2023-03-07T07:13:19.222Z,987.95
2023-03-07T07:15:34.613Z,987.96
2023-03-07T07:16:15.761Z,988
2023-03-07T07:16:56.287Z,988.03
2023-03-07T07:17:36.888Z,987.95
2023-03-07T07:18:17.494Z,988.01
2023-03-07T07:18:57.986Z,987.91
2023-03-07T07:19:38.531Z,987.98
2023-03-07T07:20:19.062Z,987.97
2023-03-07T07:20:59.708Z,987.96
2023-03-07T07:21:40.201Z,987.99
2023-03-07T07:22:20.709Z,988.01
2023-03-07T07:23:01.302Z,987.92
2023-03-07T07:23:41.791Z,987.92
2023-03-07T07:24:22.336Z,987.88
2023-03-07T07:25:02.800Z,987.98
2023-03-07T07:25:43.377Z,987.94
2023-03-07T07:26:23.874Z,987.94
2023-03-07T07:27:04.462Z,987.95
2023-03-07T07:27:44.952Z,987.94
2023-03-07T07:28:25.477Z,987.81
2023-03-07T07:29:06.085Z,987.95
2023-03-07T07:29:46.639Z,987.96
2023-03-07T07:30:27.215Z,987.83
2023-03-07T07:31:48.320Z,987.91
2023-03-07T07:32:29.275Z,987.88
2023-03-07T07:33:10.826Z,987.96
2023-03-07T07:33:51.137Z,987.98
2023-03-07T07:34:31.744Z,988.02
2023-03-07T07:35:12.306Z,987.91
2023-03-07T07:35:53.372Z,987.97
2023-03-07T07:36:33.962Z,988.03
2023-03-07T07:37:14.576Z,987.97
2023-03-07T07:37:55.199Z,987.93
2023-03-07T07:39:16.388Z,987.99
2023-03-07T07:39:57.043Z,987.92
2023-03-07T07:42:20.561Z,988.03
2023-03-07T07:43:01.371Z,987.95
2023-03-07T07:43:42.419Z,988.03
2023-03-07T07:44:23.165Z,988.01
2023-03-07T07:45:03.868Z,987.99
2023-03-07T07:45:44.392Z,988.09
2023-03-07T07:46:24.933Z,988.05
2023-03-07T07:49:00.759Z,988.07
2023-03-07T07:49:41.488Z,988.03
2023-03-07T07:50:22.401Z,988.11
2023-03-07T07:51:03.000Z,988.04
2023-03-07T07:51:44.181Z,988.12
2023-03-07T07:52:24.781Z,988.04
2023-03-07T07:53:05.286Z,988.05
2023-03-07T07:53:47.654Z,988.07
2023-03-07T07:54:27.284Z,988.1
2023-03-07T07:55:07.886Z,988.15
2023-03-07T07:55:48.540Z,987.94
2023-03-07T07:56:28.999Z,987.98
2023-03-07T07:57:10.174Z,988.05
2023-03-07T07:57:50.644Z,988.02
2023-03-07T08:01:34.245Z,988.11
2023-03-07T08:02:18.888Z,988.14
2023-03-07T08:02:59.546Z,987.95
2023-03-07T08:03:40.527Z,988.04
2023-03-07T08:04:21.416Z,988.03
2023-03-07T08:05:02.839Z,988.03
2023-03-07T08:05:44.042Z,988.09
2023-03-07T08:06:27.654Z,988.08
2023-03-07T08:07:08.252Z,988.16
2023-03-07T08:09:08.792Z,988.13
2023-03-07T08:09:49.927Z,988.11
2023-03-07T08:10:30.771Z,988.12
2023-03-07T08:11:11.580Z,988.08
2023-03-07T08:11:52.433Z,988.15
2023-03-07T08:12:32.874Z,988.12
2023-03-07T08:13:13.455Z,988.12
2023-03-07T08:15:24.310Z,988.17
2023-03-07T08:17:41.555Z,988.17
2023-03-07T08:18:24.472Z,988.24
2023-03-07T08:19:09.472Z,988.25
2023-03-07T08:19:52.281Z,988.21
2023-03-07T08:20:33.326Z,988.04
2023-03-07T08:21:15.343Z,988.11
2023-03-07T08:21:58.046Z,988.13
2023-03-07T08:22:41.952Z,988.2
2023-03-07T08:23:26.063Z,988.2
2023-03-07T08:24:08.032Z,988.16
2023-03-07T08:24:50.918Z,988.2
2023-03-07T08:25:35.684Z,988.27
2023-03-07T08:26:17.293Z,988.12
2023-03-07T08:26:58.322Z,988.13
2023-03-07T08:27:39.504Z,988.21
2023-03-07T08:28:20.885Z,988.14
2023-03-07T08:29:04.533Z,988.06
2023-03-07T08:29:48.454Z,988.16
2023-03-07T08:30:29.718Z,988.21
2023-03-07T08:33:00.885Z,988.14
2023-03-07T08:34:55.000Z,988.2
2023-03-07T08:35:35.656Z,988.17
2023-03-07T08:36:16.247Z,988.15
2023-03-07T08:36:57.488Z,988.22
2023-03-07T08:37:38.322Z,988.2
2023-03-07T08:42:32.383Z,988.22
2023-03-07T08:43:13.431Z,988.02
2023-03-07T08:43:54.468Z,988.11
2023-03-07T08:44:35.614Z,988.16
2023-03-07T08:45:17.495Z,988.21
2023-03-07T08:45:58.562Z,988.15
2023-03-07T08:46:39.571Z,988.16
2023-03-07T08:47:21.380Z,988.11
2023-03-07T08:49:50.726Z,988.09
2023-03-07T08:50:31.260Z,988.19
2023-03-07T08:51:12.461Z,988.03
2023-03-07T08:51:53.897Z,988.16
2023-03-07T08:52:34.689Z,988.19
2023-03-07T08:56:05.111Z,988.14
2023-03-07T08:56:46.289Z,988.16
2023-03-07T08:57:27.848Z,988.18
2023-03-07T08:58:08.471Z,988.1
2023-03-07T09:00:25.647Z,988.09
2023-03-07T09:01:06.224Z,988.15
2023-03-07T09:01:46.928Z,987.97
2023-03-07T09:02:27.642Z,988.08
2023-03-07T09:03:08.148Z,988.11
2023-03-07T09:03:48.686Z,988.12
2023-03-07T09:04:29.319Z,988.12
2023-03-07T09:05:09.866Z,988.09
2023-03-07T09:05:50.374Z,988.04
2023-03-07T09:06:30.849Z,988.09
2023-03-07T09:07:11.434Z,988.12
2023-03-07T09:07:51.945Z,988.03
2023-03-07T09:09:51.044Z,988.08
2023-03-07T09:10:31.500Z,987.98
2023-03-07T09:11:12.498Z,988.03
2023-03-07T09:11:53.548Z,987.92
2023-03-07T09:12:34.881Z,988.08
2023-03-07T09:13:18.245Z,988.11
2023-03-07T09:13:56.881Z,988.09
2023-03-07T09:14:37.989Z,987.91
2023-03-07T09:15:19.129Z,988.08
2023-03-07T09:16:00.345Z,988.11
2023-03-07T09:16:41.586Z,988.03
2023-03-07T09:17:22.639Z,988.08
2023-03-07T09:18:03.811Z,988.09
2023-03-07T09:18:45.603Z,988.17
2023-03-07T09:19:26.664Z,988.14
2023-03-07T09:20:07.978Z,988.21
2023-03-07T09:20:49.413Z,988.17
2023-03-07T09:21:30.506Z,988.13
2023-03-07T09:22:11.446Z,988.08
2023-03-07T09:22:52.427Z,988.09
2023-03-07T09:23:34.051Z,988.13
2023-03-07T09:24:15.143Z,988.1
2023-03-07T09:24:56.148Z,988.18
2023-03-07T09:25:37.206Z,988.07
2023-03-07T09:26:18.145Z,988.11
2023-03-07T09:26:59.258Z,988.11
2023-03-07T09:27:40.359Z,988.18
2023-03-07T09:28:21.589Z,988.13
2023-03-07T09:29:02.666Z,988.16
2023-03-07T09:29:43.768Z,988.17
2023-03-07T09:30:24.777Z,988.17
2023-03-07T09:31:06.623Z,988.14
2023-03-07T09:31:46.938Z,988.13
2023-03-07T09:32:27.965Z,988.11
2023-03-07T09:33:09.197Z,988.08
2023-03-07T09:33:50.185Z,988.11
2023-03-07T09:34:31.183Z,988.02
2023-03-07T09:35:12.247Z,988.05
2023-03-07T09:35:53.434Z,988.07
2023-03-07T09:36:34.517Z,988.11
2023-03-07T09:37:15.602Z,988.19
2023-03-07T09:37:56.662Z,987.97
2023-03-07T09:38:37.795Z,987.99
2023-03-07T09:39:18.969Z,987.92
2023-03-07T09:40:00.140Z,987.97
2023-03-07T09:40:41.286Z,988.05
2023-03-07T09:41:22.430Z,988.04
2023-03-07T09:42:03.635Z,988.02
2023-03-07T09:42:44.829Z,987.92
2023-03-07T09:43:25.816Z,987.97
2023-03-07T09:44:06.990Z,987.87
2023-03-07T09:44:48.150Z,988
2023-03-07T09:45:29.251Z,988.04
2023-03-07T09:46:10.249Z,988.08
2023-03-07T09:46:51.365Z,988.08
2023-03-07T09:47:32.420Z,988.12
2023-03-07T09:48:13.562Z,988.07
2023-03-07T09:48:54.520Z,987.96
2023-03-07T09:51:13.201Z,987.96
2023-03-07T09:51:56.880Z,988
2023-03-07T09:52:37.235Z,988
2023-03-07T09:53:17.835Z,988.02
2023-03-07T09:53:58.331Z,987.98
2023-03-07T09:54:39.303Z,987.99
2023-03-07T09:55:20.764Z,988.03
2023-03-07T09:56:02.195Z,987.99
2023-03-07T09:56:50.422Z,987.93
2023-03-07T09:59:32.575Z,988
2023-03-07T10:00:13.336Z,987.96
2023-03-07T10:00:54.701Z,987.97
2023-03-07T10:01:34.776Z,988.05
2023-03-07T10:02:15.372Z,987.9
2023-03-07T10:02:55.889Z,987.86
2023-03-07T10:03:36.533Z,987.86
2023-03-07T10:04:17.108Z,987.9
2023-03-07T10:04:57.670Z,987.96
2023-03-07T10:05:38.172Z,987.94
2023-03-07T10:06:18.744Z,987.88
2023-03-07T10:06:59.345Z,987.81
2023-03-07T10:07:39.866Z,987.9
2023-03-07T10:08:20.398Z,987.89
2023-03-07T10:09:01.129Z,987.96
2023-03-07T10:09:41.599Z,987.95
2023-03-07T10:10:22.251Z,987.95
2023-03-07T10:11:02.755Z,988.04
2023-03-07T10:11:43.314Z,987.95
2023-03-07T10:13:04.300Z,987.88
2023-03-07T10:13:44.795Z,987.98
2023-03-07T10:14:25.370Z,987.99
2023-03-07T10:15:06.609Z,987.91
2023-03-07T10:15:47.177Z,987.96
2023-03-07T10:16:27.791Z,988.01
2023-03-07T10:17:08.616Z,987.88
2023-03-07T10:17:48.940Z,987.89
2023-03-07T10:18:29.459Z,987.94
2023-03-07T10:19:10.150Z,987.88
2023-03-07T10:19:50.576Z,987.88
2023-03-07T10:20:31.141Z,987.8
2023-03-07T10:21:11.640Z,987.84
2023-03-07T10:21:52.332Z,987.88
2023-03-07T10:22:32.854Z,987.87
2023-03-07T10:23:13.439Z,987.84
2023-03-07T10:23:54.030Z,987.81
2023-03-07T10:24:36.910Z,987.84
2023-03-07T10:25:15.223Z,987.82
2023-03-07T10:25:55.784Z,987.78
2023-03-07T10:26:36.476Z,988.02
2023-03-07T10:27:17.023Z,987.91
2023-03-07T10:27:57.446Z,987.86
2023-03-07T10:28:38.057Z,987.86
2023-03-07T10:29:18.663Z,987.85
2023-03-07T10:29:59.226Z,987.89
2023-03-07T10:30:39.755Z,987.92
2023-03-07T10:31:21.076Z,987.77
2023-03-07T10:32:01.702Z,987.88